Time;durP1;ratioP1;P1;durP2;ratioP2;P2;SDS_P1;SDS_P2;PMS_P1;PMS_P2;Temp;Humidity;BMP_temperature;BMP_pressure;BME280_temperature;BME280_humidity;BME280_pressure;Samples;Min_cycle;Max_cycle;Signal;HPM_P1;HPM_P2
2023/10/29 00:00:56;;;;;;;3.35;2.30;;;7.70;99.90;;;;;;4994717;28;20097;-58
2023/10/29 00:03:22;;;;;;;3.75;2.95;;;7.70;99.90;;;;;;4994697;28;20061;-59
2023/10/29 00:05:49;;;;;;;3.13;2.50;;;7.70;99.90;;;;;;4974856;28;20077;-60
2023/10/29 00:08:16;;;;;;;3.67;2.30;;;7.70;99.90;;;;;;4988111;28;20104;-60
2023/10/29 00:10:43;;;;;;;7.57;3.40;;;7.70;99.90;;;;;;4990069;28;20514;-59
2023/10/29 00:13:10;;;;;;;4.70;2.95;;;7.60;99.90;;;;;;4990862;28;20038;-59
2023/10/29 00:15:37;;;;;;;3.13;2.55;;;7.70;99.90;;;;;;4987233;28;20050;-58
2023/10/29 00:18:08;;;;;;;4.68;2.50;;;7.60;99.90;;;;;;4987553;28;20057;-59
2023/10/29 00:20:35;;;;;;;3.63;2.30;;;7.70;99.90;;;;;;5000978;28;20058;-60
2023/10/29 00:23:02;;;;;;;4.18;2.55;;;7.70;99.90;;;;;;4991065;28;20050;-60
2023/10/29 00:25:29;;;;;;;4.65;2.58;;;7.70;99.90;;;;;;4984167;28;20050;-59
2023/10/29 00:27:56;;;;;;;5.75;2.60;;;7.70;99.90;;;;;;4993146;28;20045;-59
2023/10/29 00:30:23;;;;;;;9.02;3.38;;;7.70;99.90;;;;;;4985302;28;20050;-60
2023/10/29 00:32:50;;;;;;;7.47;3.00;;;7.70;99.90;;;;;;4994026;28;20062;-60
2023/10/29 00:35:17;;;;;;;7.15;2.28;;;7.70;99.90;;;;;;4986649;28;20039;-56
2023/10/29 00:37:43;;;;;;;9.27;3.15;;;7.70;99.90;;;;;;4987505;28;20517;-59
2023/10/29 00:40:10;;;;;;;4.13;2.45;;;7.70;99.90;;;;;;4963009;28;20399;-59
2023/10/29 00:42:37;;;;;;;3.20;2.20;;;7.60;99.90;;;;;;4966857;28;20051;-59
2023/10/29 00:45:04;;;;;;;3.15;2.00;;;7.50;99.90;;;;;;4970201;28;20050;-60
2023/10/29 00:47:32;;;;;;;5.65;2.67;;;7.50;99.90;;;;;;4973645;28;20514;-59
2023/10/29 00:49:58;;;;;;;;;;;7.60;99.90;;;;;;4987551;28;20125;-60
2023/10/29 00:52:26;;;;;;;4.05;2.50;;;7.60;99.90;;;;;;4973549;28;19922;-59
2023/10/29 00:54:54;;;;;;;5.60;3.28;;;7.60;99.90;;;;;;4985994;28;20038;-58
2023/10/29 00:57:21;;;;;;;6.05;3.20;;;7.60;99.90;;;;;;4991909;28;20035;-60
2023/10/29 00:59:47;;;;;;;4.30;2.90;;;7.60;99.90;;;;;;4964918;28;20054;-60
2023/10/29 01:02:14;;;;;;;7.93;2.90;;;7.60;99.90;;;;;;4964151;28;20042;-58
2023/10/29 01:04:41;;;;;;;9.30;2.50;;;7.60;99.90;;;;;;4971989;28;20042;-59
2023/10/29 01:07:08;;;;;;;4.20;2.80;;;7.60;99.90;;;;;;4982155;28;20050;-59
2023/10/29 01:09:35;;;;;;;4.47;2.70;;;7.80;99.90;;;;;;4976109;28;20080;-59
2023/10/29 01:12:02;;;;;;;4.65;3.13;;;7.90;99.90;;;;;;4978607;28;20506;-59
2023/10/29 01:14:30;;;;;;;3.70;2.60;;;7.90;99.90;;;;;;4993407;28;20045;-59
2023/10/29 01:16:57;;;;;;;3.33;2.78;;;7.80;99.90;;;;;;4983330;28;20057;-59
2023/10/29 01:19:24;;;;;;;3.65;2.50;;;7.80;99.90;;;;;;4992893;28;20145;-59
2023/10/29 01:21:51;;;;;;;3.78;2.47;;;7.80;99.90;;;;;;4975992;28;20085;-58
2023/10/29 01:24:18;;;;;;;6.50;3.38;;;7.70;99.90;;;;;;4975242;28;20050;-60
2023/10/29 01:26:45;;;;;;;5.57;2.70;;;7.70;99.90;;;;;;4992448;28;20050;-58
2023/10/29 01:29:11;;;;;;;3.35;2.65;;;7.70;99.90;;;;;;4973504;28;20054;-59
2023/10/29 01:31:38;;;;;;;4.97;2.90;;;7.70;99.90;;;;;;4994418;28;20057;-60
2023/10/29 01:34:06;;;;;;;4.43;3.10;;;7.80;99.90;;;;;;4997058;28;20031;-58
2023/10/29 01:36:33;;;;;;;6.32;3.65;;;7.80;99.90;;;;;;4992689;28;20039;-58
2023/10/29 01:38:59;;;;;;;4.25;2.75;;;7.90;99.90;;;;;;4975164;28;20042;-58
2023/10/29 01:41:26;;;;;;;4.18;2.55;;;7.90;99.90;;;;;;4993160;28;20372;-60
2023/10/29 01:43:53;;;;;;;4.47;2.88;;;7.90;99.90;;;;;;4975465;28;20116;-59
2023/10/29 01:46:20;;;;;;;6.57;3.40;;;7.90;99.90;;;;;;4992701;28;20368;-59
2023/10/29 01:48:47;;;;;;;5.32;3.00;;;7.90;99.90;;;;;;4984315;28;20061;-57
2023/10/29 01:51:14;;;;;;;3.40;2.33;;;7.90;99.90;;;;;;4973693;28;20502;-58
2023/10/29 01:53:43;;;;;;;3.65;2.78;;;7.90;99.90;;;;;;4972437;28;20056;-59
2023/10/29 01:56:10;;;;;;;4.82;3.30;;;7.80;99.90;;;;;;4974624;28;20047;-59
2023/10/29 01:58:36;;;;;;;5.45;3.03;;;7.70;99.90;;;;;;4977623;28;20066;-59
2023/10/29 02:01:11;;;;;;;5.70;3.13;;;7.60;99.90;;;;;;4971955;28;20049;-59
2023/10/29 02:03:38;;;;;;;5.05;2.90;;;7.50;99.90;;;;;;4990135;28;20046;-58
2023/10/29 02:06:18;;;;;;;5.50;3.15;;;7.40;99.90;;;;;;4989486;28;20443;-58
2023/10/29 02:08:45;;;;;;;4.18;2.70;;;7.40;99.90;;;;;;4973520;28;20051;-59
2023/10/29 02:11:13;;;;;;;6.43;3.00;;;7.30;99.90;;;;;;4974873;28;20042;-59
2023/10/29 02:13:40;;;;;;;3.83;2.78;;;7.20;99.90;;;;;;4974398;28;20097;-58
2023/10/29 02:16:09;;;;;;;4.35;2.85;;;7.20;99.90;;;;;;4974475;28;20049;-60
2023/10/29 02:18:36;;;;;;;4.28;2.95;;;7.20;99.90;;;;;;4971962;28;20085;-58
2023/10/29 02:21:03;;;;;;;4.70;3.00;;;7.10;99.90;;;;;;4992499;28;20101;-60
2023/10/29 02:23:30;;;;;;;4.25;3.03;;;7.10;99.90;;;;;;4974536;28;20061;-59
2023/10/29 02:25:57;;;;;;;5.55;3.03;;;7.10;99.90;;;;;;4991846;28;20038;-59
2023/10/29 02:28:23;;;;;;;7.10;3.20;;;7.10;99.90;;;;;;4971726;28;20043;-59
2023/10/29 02:30:50;;;;;;;4.50;3.42;;;7.10;99.90;;;;;;4990944;28;20042;-58
2023/10/29 02:33:17;;;;;;;10.70;4.32;;;7.00;99.90;;;;;;4990759;28;20117;-60
2023/10/29 02:35:44;;;;;;;6.93;3.65;;;7.00;99.90;;;;;;4991767;28;20141;-58
2023/10/29 02:38:14;;;;;;;7.18;4.28;;;7.10;99.90;;;;;;4967107;28;20464;-59
2023/10/29 02:40:41;;;;;;;9.65;4.35;;;7.10;99.90;;;;;;4983267;28;20133;-58
2023/10/29 02:43:08;;;;;;;6.88;4.47;;;7.10;99.90;;;;;;4972366;28;20038;-59
2023/10/29 02:45:35;;;;;;;8.80;5.47;;;7.20;99.90;;;;;;4974432;28;20183;-59
2023/10/29 02:48:02;;;;;;;6.53;4.22;;;7.10;99.90;;;;;;4991466;28;20065;-59
2023/10/29 02:50:29;;;;;;;7.55;3.88;;;7.10;99.90;;;;;;4974809;28;20057;-57
2023/10/29 02:52:56;;;;;;;4.95;3.30;;;7.10;99.90;;;;;;4976629;28;20504;-59
2023/10/29 02:55:23;;;;;;;;;;;7.10;99.90;;;;;;4987941;28;20042;-59
2023/10/29 02:57:50;;;;;;;6.13;3.13;;;7.10;99.90;;;;;;4974716;28;19933;-59
2023/10/29 03:00:17;;;;;;;6.50;3.17;;;7.10;99.90;;;;;;4970748;28;20062;-59
2023/10/29 03:02:44;;;;;;;4.40;3.00;;;7.10;99.90;;;;;;4975357;28;20060;-60
2023/10/29 03:05:11;;;;;;;7.18;2.67;;;7.10;99.90;;;;;;4965718;28;20057;-59
2023/10/29 03:07:39;;;;;;;4.93;2.47;;;7.10;99.90;;;;;;4992791;28;20049;-59
2023/10/29 03:10:06;;;;;;;2.88;1.77;;;7.10;99.90;;;;;;4996214;28;20038;-59
2023/10/29 03:12:32;;;;;;;2.88;1.90;;;7.10;99.90;;;;;;4978293;28;20042;-59
2023/10/29 03:15:00;;;;;;;4.57;1.70;;;7.20;99.90;;;;;;4989821;28;20054;-59
2023/10/29 03:17:27;;;;;;;2.70;1.67;;;7.20;99.90;;;;;;4971564;28;20047;-59
2023/10/29 03:19:55;;;;;;;4.07;2.20;;;7.20;99.90;;;;;;4958542;28;20201;-59
2023/10/29 03:22:21;;;;;;;4.05;2.33;;;7.20;99.90;;;;;;4975268;28;20049;-59
2023/10/29 03:24:48;;;;;;;5.47;2.30;;;7.10;99.90;;;;;;4978178;28;20144;-59
2023/10/29 03:27:16;;;;;;;5.45;2.15;;;7.00;99.90;;;;;;4978109;28;20074;-59
2023/10/29 03:29:43;;;;;;;2.67;1.80;;;7.00;99.90;;;;;;4995944;28;20065;-58
2023/10/29 03:32:10;;;;;;;3.88;2.47;;;6.90;99.90;;;;;;4977871;28;20069;-60
2023/10/29 03:34:37;;;;;;;3.65;1.33;;;6.90;99.90;;;;;;4993913;28;20479;-59
2023/10/29 03:37:05;;;;;;;6.50;2.30;;;6.80;99.90;;;;;;4974586;28;20046;-58
2023/10/29 03:39:31;;;;;;;7.15;1.85;;;6.80;99.90;;;;;;4965381;28;20047;-59
2023/10/29 03:41:59;;;;;;;2.80;1.77;;;6.80;99.90;;;;;;4987353;28;20045;-60
2023/10/29 03:44:26;;;;;;;3.45;2.00;;;6.80;99.90;;;;;;4987988;28;20431;-59
2023/10/29 03:46:53;;;;;;;4.40;1.67;;;6.80;99.90;;;;;;4975694;28;20085;-60
2023/10/29 03:49:20;;;;;;;2.97;1.92;;;6.80;99.90;;;;;;4995177;28;20053;-60
2023/10/29 03:51:47;;;;;;;4.22;1.77;;;6.80;99.90;;;;;;4995326;28;20054;-59
2023/10/29 03:54:14;;;;;;;2.70;1.77;;;6.80;99.90;;;;;;4976476;28;20141;-59
2023/10/29 03:56:41;;;;;;;2.63;1.67;;;6.80;99.90;;;;;;4962368;28;20042;-60
2023/10/29 03:59:08;;;;;;;4.90;2.00;;;6.90;99.90;;;;;;4991182;28;20034;-59
2023/10/29 04:01:35;;;;;;;3.28;2.17;;;6.90;99.90;;;;;;4995268;28;20371;-57
2023/10/29 04:04:03;;;;;;;3.00;2.17;;;7.00;99.90;;;;;;4959119;28;20046;-59
2023/10/29 04:06:31;;;;;;;3.70;2.38;;;7.00;99.90;;;;;;4957902;28;20066;-60
2023/10/29 04:08:58;;;;;;;4.40;2.20;;;7.00;99.90;;;;;;4974467;28;20044;-59
2023/10/29 04:11:24;;;;;;;3.55;2.30;;;7.00;99.90;;;;;;4990940;28;20060;-58
2023/10/29 04:13:51;;;;;;;3.15;2.17;;;7.00;99.90;;;;;;4976812;28;20058;-59
2023/10/29 04:16:18;;;;;;;4.85;2.50;;;7.00;99.90;;;;;;4973564;28;20051;-59
2023/10/29 04:18:45;;;;;;;6.13;2.58;;;7.00;99.90;;;;;;4990565;28;20042;-59
2023/10/29 04:21:12;;;;;;;5.07;3.00;;;7.00;99.90;;;;;;4988436;28;20038;-59
2023/10/29 04:23:39;;;;;;;4.32;2.72;;;6.90;99.90;;;;;;4987346;28;20047;-59
2023/10/29 04:26:06;;;;;;;4.72;2.88;;;6.90;99.90;;;;;;4974999;28;20138;-59
2023/10/29 04:28:33;;;;;;;6.00;2.42;;;6.80;99.90;;;;;;4975399;28;20042;-59
2023/10/29 04:31:00;;;;;;;3.42;2.47;;;6.80;99.90;;;;;;4984505;28;20053;-60
2023/10/29 04:33:27;;;;;;;3.55;2.50;;;6.80;99.90;;;;;;4994844;28;20129;-59
2023/10/29 04:35:54;;;;;;;7.18;2.67;;;6.80;99.90;;;;;;4976850;28;20042;-59
2023/10/29 04:38:21;;;;;;;5.60;2.80;;;6.90;99.90;;;;;;4987734;28;20554;-60
2023/10/29 04:40:48;;;;;;;4.57;2.70;;;6.90;99.90;;;;;;4990847;28;20046;-59
2023/10/29 04:43:15;;;;;;;4.30;2.58;;;7.00;99.90;;;;;;4994596;28;20387;-58
2023/10/29 04:45:41;;;;;;;7.25;2.35;;;6.90;99.90;;;;;;4993946;28;20057;-59
2023/10/29 04:48:08;;;;;;;6.88;2.35;;;6.90;99.90;;;;;;4993802;28;20068;-58
2023/10/29 04:50:35;;;;;;;5.90;1.98;;;6.80;99.90;;;;;;4989164;28;20121;-60
2023/10/29 04:53:02;;;;;;;3.40;1.70;;;6.70;99.90;;;;;;4994486;28;20053;-58
2023/10/29 04:55:29;;;;;;;2.85;2.00;;;6.70;99.90;;;;;;4994154;28;20121;-59
2023/10/29 04:57:56;;;;;;;4.53;2.17;;;6.80;99.90;;;;;;4993114;28;20050;-60
2023/10/29 05:00:23;;;;;;;3.88;2.10;;;6.70;99.90;;;;;;4986830;28;20396;-59
2023/10/29 05:02:50;;;;;;;4.13;2.10;;;6.70;99.90;;;;;;4986173;28;20039;-59
2023/10/29 05:05:17;;;;;;;3.60;2.00;;;6.70;99.90;;;;;;4993733;28;20506;-58
2023/10/29 05:07:45;;;;;;;3.47;2.05;;;6.70;99.90;;;;;;4993933;28;20047;-59
2023/10/29 05:10:13;;;;;;;6.15;1.75;;;6.70;99.90;;;;;;4989485;28;20053;-59
2023/10/29 05:12:40;;;;;;;3.25;2.22;;;6.70;99.90;;;;;;4988482;28;20491;-59
2023/10/29 05:15:07;;;;;;;;;;;6.80;99.90;;;;;;4993164;28;20038;-58
2023/10/29 05:17:34;;;;;;;5.88;2.30;;;6.70;99.90;;;;;;4993728;28;19925;-58
2023/10/29 05:20:02;;;;;;;3.67;2.67;;;6.70;99.90;;;;;;4986890;28;20528;-59
2023/10/29 05:22:29;;;;;;;4.53;2.35;;;6.70;99.90;;;;;;4994053;28;20038;-59
2023/10/29 05:24:56;;;;;;;5.47;2.35;;;6.70;99.90;;;;;;4989862;28;20057;-59
2023/10/29 05:27:22;;;;;;;7.32;3.85;;;6.60;99.90;;;;;;4993367;28;20046;-60
2023/10/29 05:29:49;;;;;;;8.52;4.90;;;6.40;99.90;;;;;;4984207;28;20047;-59
2023/10/29 05:32:16;;;;;;;6.45;4.10;;;6.40;99.90;;;;;;4988084;28;20399;-59
2023/10/29 05:34:43;;;;;;;8.00;3.90;;;6.30;99.90;;;;;;4992993;28;20043;-59
2023/10/29 05:37:11;;;;;;;6.80;3.53;;;6.30;99.90;;;;;;4990884;28;20045;-59
2023/10/29 05:39:37;;;;;;;6.40;2.90;;;6.20;99.90;;;;;;4988777;28;20049;-60
2023/10/29 05:42:04;;;;;;;9.48;3.30;;;6.20;99.90;;;;;;4985279;28;20436;-60
2023/10/29 05:44:31;;;;;;;3.55;2.13;;;6.20;99.90;;;;;;4984715;28;20034;-59
2023/10/29 05:46:58;;;;;;;6.05;2.50;;;6.30;99.90;;;;;;4987845;28;20042;-59
2023/10/29 05:49:25;;;;;;;6.20;2.28;;;6.30;99.90;;;;;;4989084;28;20038;-59
2023/10/29 05:51:51;;;;;;;4.55;1.92;;;6.30;99.90;;;;;;4972921;28;20070;-58
2023/10/29 05:54:18;;;;;;;3.80;2.17;;;6.30;99.90;;;;;;4973739;28;20399;-59
2023/10/29 05:56:46;;;;;;;2.85;1.92;;;6.30;99.90;;;;;;4987348;28;20054;-60
2023/10/29 05:59:13;;;;;;;3.58;2.47;;;6.30;99.90;;;;;;4983787;28;20043;-60
2023/10/29 06:01:39;;;;;;;3.83;2.10;;;6.40;99.90;;;;;;4987028;28;20122;-59
2023/10/29 06:04:06;;;;;;;2.90;2.17;;;6.50;99.90;;;;;;4990702;28;20491;-60
2023/10/29 06:06:33;;;;;;;3.08;1.77;;;6.60;99.90;;;;;;4972759;28;20392;-59
2023/10/29 06:09:00;;;;;;;3.30;1.70;;;6.70;99.90;;;;;;4973486;28;20050;-60
2023/10/29 06:11:41;;;;;;;2.65;1.92;;;6.70;99.90;;;;;;4982838;28;20537;-59
2023/10/29 06:14:09;;;;;;;3.65;2.00;;;6.70;99.90;;;;;;4992722;28;20105;-59
2023/10/29 06:16:37;;;;;;;4.65;2.08;;;6.70;99.90;;;;;;4992487;28;20042;-60
2023/10/29 06:19:03;;;;;;;4.82;1.85;;;6.60;99.90;;;;;;4986851;28;20047;-59
2023/10/29 06:21:31;;;;;;;4.32;2.20;;;6.60;99.90;;;;;;4974092;28;20066;-60
2023/10/29 06:23:57;;;;;;;;;;;6.60;99.90;;;;;;4979832;28;20050;-56
2023/10/29 06:26:24;;;;;;;6.32;1.90;;;6.70;99.90;;;;;;4980509;28;20401;-59
2023/10/29 06:28:51;;;;;;;3.58;1.90;;;6.70;99.90;;;;;;4978999;28;20049;-59
2023/10/29 06:31:18;;;;;;;2.90;2.00;;;6.80;99.90;;;;;;4991113;28;20046;-59
2023/10/29 06:33:45;;;;;;;6.25;2.10;;;6.80;99.90;;;;;;4986319;28;20100;-59
2023/10/29 06:36:12;;;;;;;2.80;1.92;;;6.80;99.90;;;;;;4980686;28;20043;-58
2023/10/29 06:38:38;;;;;;;3.88;2.40;;;6.80;99.90;;;;;;4963615;28;20046;-59
2023/10/29 06:41:05;;;;;;;2.92;1.90;;;6.80;99.90;;;;;;4980835;28;20051;-59
2023/10/29 06:43:34;;;;;;;2.65;1.90;;;6.80;99.90;;;;;;4991666;28;20038;-58
2023/10/29 06:46:01;;;;;;;2.72;1.63;;;6.80;99.90;;;;;;4990414;28;20046;-58
2023/10/29 06:48:27;;;;;;;2.70;1.80;;;6.90;99.90;;;;;;4996064;28;20502;-59
2023/10/29 06:50:54;;;;;;;3.38;1.58;;;6.90;99.90;;;;;;4981091;28;20700;-59
2023/10/29 06:53:21;;;;;;;1.88;1.00;;;7.00;99.90;;;;;;4972934;28;20131;-60
2023/10/29 06:55:48;;;;;;;4.80;1.60;;;7.20;99.90;;;;;;4979569;28;20046;-59
2023/10/29 06:58:15;;;;;;;5.95;2.05;;;7.20;99.90;;;;;;4990124;28;20079;-59
2023/10/29 07:00:41;;;;;;;7.95;2.50;;;7.20;99.90;;;;;;4974625;28;20410;-58
2023/10/29 07:03:08;;;;;;;4.22;2.38;;;7.20;99.90;;;;;;4974256;28;20046;-59
2023/10/29 07:05:35;;;;;;;4.55;2.55;;;7.20;99.90;;;;;;4972612;28;20531;-58
2023/10/29 07:08:03;;;;;;;5.50;3.05;;;7.10;99.90;;;;;;4987972;28;20077;-60
2023/10/29 07:10:29;;;;;;;6.15;2.50;;;7.20;99.90;;;;;;4992051;28;20054;-59
2023/10/29 07:12:56;;;;;;;4.93;2.35;;;7.10;99.90;;;;;;4991985;28;20050;-59
2023/10/29 07:15:23;;;;;;;6.05;2.85;;;7.10;99.90;;;;;;4987593;28;20043;-60
2023/10/29 07:17:50;;;;;;;5.05;2.70;;;7.10;99.90;;;;;;4990113;28;20046;-59
2023/10/29 07:20:17;;;;;;;2.72;1.98;;;7.20;99.90;;;;;;4981902;28;20051;-59
2023/10/29 07:22:44;;;;;;;8.75;2.10;;;7.20;99.90;;;;;;4972467;28;20045;-58
2023/10/29 07:25:11;;;;;;;5.65;2.33;;;7.30;99.90;;;;;;4974095;28;20061;-58
2023/10/29 07:27:37;;;;;;;4.28;2.03;;;7.40;99.90;;;;;;4983876;28;20046;-59
2023/10/29 07:30:05;;;;;;;3.70;1.80;;;7.60;99.90;;;;;;4979548;28;20038;-59
2023/10/29 07:32:32;;;;;;;2.78;2.00;;;7.70;99.90;;;;;;4991897;28;20495;-58
2023/10/29 07:34:59;;;;;;;1.98;1.40;;;7.90;99.90;;;;;;4984363;28;20046;-59
2023/10/29 07:37:25;;;;;;;3.88;1.67;;;8.00;99.90;;;;;;4991108;28;20045;-59
2023/10/29 07:39:52;;;;;;;2.35;1.70;;;8.10;99.90;;;;;;4996719;28;20050;-57
2023/10/29 07:42:20;;;;;;;8.02;2.20;;;8.20;99.90;;;;;;4978443;28;20043;-58
2023/10/29 07:44:48;;;;;;;4.75;1.98;;;8.40;99.90;;;;;;4980659;28;20034;-58
2023/10/29 07:47:15;;;;;;;3.13;1.70;;;8.60;99.90;;;;;;4984805;28;20043;-57
2023/10/29 07:49:42;;;;;;;6.00;1.27;;;8.70;99.90;;;;;;4989466;28;20061;-57
2023/10/29 07:52:10;;;;;;;1.60;1.15;;;8.90;99.90;;;;;;4989471;28;20057;-59
2023/10/29 07:54:37;;;;;;;4.00;1.58;;;9.00;99.90;;;;;;4986885;28;20492;-59
2023/10/29 07:57:04;;;;;;;2.75;1.60;;;9.10;99.90;;;;;;4985535;28;20258;-59
2023/10/29 07:59:32;;;;;;;3.70;1.58;;;9.20;99.90;;;;;;4993495;28;20137;-57
2023/10/29 08:01:59;;;;;;;5.97;2.03;;;9.20;99.90;;;;;;4995458;28;20046;-58
2023/10/29 08:04:28;;;;;;;3.00;1.98;;;9.30;99.90;;;;;;4994650;28;20121;-59
2023/10/29 08:06:55;;;;;;;4.07;1.80;;;9.40;99.90;;;;;;4990593;28;20050;-58
2023/10/29 08:09:22;;;;;;;2.50;1.67;;;9.50;99.90;;;;;;4995207;28;20050;-59
2023/10/29 08:11:49;;;;;;;3.88;1.98;;;9.60;99.90;;;;;;4995245;28;20065;-58
2023/10/29 08:14:16;;;;;;;;;;;9.70;99.90;;;;;;4995200;28;20073;-58
2023/10/29 08:16:43;;;;;;;5.28;1.90;;;9.70;99.90;;;;;;4994684;28;19928;-59
2023/10/29 08:19:09;;;;;;;2.78;1.80;;;9.80;99.90;;;;;;4976368;28;20051;-59
2023/10/29 08:21:36;;;;;;;3.88;1.30;;;9.80;99.90;;;;;;4996274;28;20057;-58
2023/10/29 08:24:03;;;;;;;3.28;1.73;;;10.10;99.90;;;;;;4991711;28;20043;-59
2023/10/29 08:26:32;;;;;;;3.63;1.55;;;10.40;99.90;;;;;;4991094;28;20066;-58
2023/10/29 08:28:59;;;;;;;2.22;1.42;;;10.60;99.90;;;;;;4986625;28;20509;-59
2023/10/29 08:31:25;;;;;;;1.27;0.80;;;10.80;99.90;;;;;;4986251;28;20416;-58
2023/10/29 08:33:54;;;;;;;2.58;1.40;;;11.00;99.90;;;;;;4994924;28;20050;-58
2023/10/29 08:36:21;;;;;;;1.77;1.20;;;11.20;99.90;;;;;;4989052;28;20039;-57
2023/10/29 08:38:48;;;;;;;2.45;1.17;;;11.20;99.90;;;;;;4994552;28;20038;-60
2023/10/29 08:41:16;;;;;;;3.97;1.77;;;11.10;99.90;;;;;;4998878;28;20070;-58
2023/10/29 08:43:43;;;;;;;2.70;1.50;;;10.90;99.90;;;;;;4994729;28;20043;-59
2023/10/29 08:46:09;;;;;;;1.77;0.80;;;10.90;99.90;;;;;;4994167;28;20508;-58
2023/10/29 08:48:36;;;;;;;2.88;0.82;;;11.20;99.90;;;;;;4986162;28;20050;-56
2023/10/29 08:51:05;;;;;;;1.88;0.80;;;11.60;99.90;;;;;;4994249;28;20117;-58
2023/10/29 08:53:31;;;;;;;1.58;0.60;;;12.00;99.90;;;;;;4993502;28;20113;-59
2023/10/29 08:55:58;;;;;;;3.03;0.70;;;12.30;99.90;;;;;;4994123;28;20038;-59
2023/10/29 08:58:25;;;;;;;1.85;0.75;;;12.50;99.90;;;;;;4994208;28;20396;-59
2023/10/29 09:00:57;;;;;;;2.65;1.33;;;12.80;99.90;;;;;;4991062;28;20495;-59
2023/10/29 09:03:25;;;;;;;1.48;0.93;;;13.00;99.90;;;;;;4994228;28;20048;-59
2023/10/29 09:05:52;;;;;;;4.15;1.35;;;13.00;99.90;;;;;;4993798;28;20101;-58
2023/10/29 09:08:19;;;;;;;2.10;1.10;;;13.00;99.90;;;;;;4993983;28;20088;-57
2023/10/29 09:10:46;;;;;;;3.42;1.58;;;13.00;99.90;;;;;;4987698;28;20053;-58
2023/10/29 09:13:13;;;;;;;8.15;4.00;;;12.90;99.90;;;;;;4991585;28;20050;-59
2023/10/29 09:15:41;;;;;;;2.28;1.58;;;12.80;99.90;;;;;;4993654;28;20043;-59
2023/10/29 09:18:08;;;;;;;2.38;1.48;;;12.80;99.90;;;;;;4978024;28;20491;-59
2023/10/29 09:20:38;;;;;;;3.42;1.98;;;12.70;99.90;;;;;;4974368;28;20098;-59
2023/10/29 09:23:05;;;;;;;3.33;0.85;;;12.90;99.90;;;;;;4991514;28;20479;-59
2023/10/29 09:25:32;;;;;;;1.42;0.85;;;13.20;99.90;;;;;;4974955;28;20490;-58
2023/10/29 09:27:58;;;;;;;3.00;1.05;;;13.30;99.90;;;;;;4969547;28;20058;-59
2023/10/29 09:30:25;;;;;;;2.50;1.30;;;13.50;99.90;;;;;;4975392;28;20493;-59
2023/10/29 09:32:52;;;;;;;2.90;0.80;;;13.60;99.90;;;;;;4985222;28;20034;-59
2023/10/29 09:35:23;;;;;;;1.10;0.90;;;13.90;99.90;;;;;;4989506;28;20042;-57
2023/10/29 09:37:49;;;;;;;4.03;1.08;;;14.10;99.90;;;;;;4988568;28;20065;-58
2023/10/29 09:40:18;;;;;;;2.15;0.70;;;14.20;99.90;;;;;;4993005;28;20488;-57
2023/10/29 09:42:55;;;;;;;2.22;1.00;;;14.30;99.90;;;;;;4990257;28;20050;-60
2023/10/29 09:45:24;;;;;;;4.32;1.00;;;14.40;99.90;;;;;;4984964;28;20049;-60
2023/10/29 09:47:52;;;;;;;1.50;0.75;;;14.50;99.90;;;;;;4988319;28;20047;-60
2023/10/29 09:50:21;;;;;;;2.42;0.70;;;14.50;99.90;;;;;;4989218;28;20038;-57
2023/10/29 09:52:53;;;;;;;3.33;0.98;;;14.80;99.90;;;;;;4985612;28;20121;-60
2023/10/29 09:55:21;;;;;;;2.58;0.85;;;14.80;99.90;;;;;;4993083;28;20072;-59
2023/10/29 09:57:49;;;;;;;4.93;1.50;;;14.90;99.90;;;;;;4992690;28;20042;-57
2023/10/29 10:00:16;;;;;;;1.20;0.80;;;15.00;99.90;;;;;;4990716;28;20046;-59
2023/10/29 10:02:50;;;;;;;1.45;0.77;;;15.10;99.90;;;;;;4992690;28;20038;-59
2023/10/29 10:05:20;;;;;;;2.58;1.05;;;15.20;99.90;;;;;;4992321;28;20054;-59
2023/10/29 10:07:47;;;;;;;2.25;0.80;;;15.30;99.90;;;;;;4990847;28;20056;-60
2023/10/29 10:10:15;;;;;;;2.00;0.90;;;15.30;99.90;;;;;;4992898;28;20049;-58
2023/10/29 10:12:46;;;;;;;1.63;0.80;;;15.30;99.90;;;;;;4991912;28;20038;-59
2023/10/29 10:15:16;;;;;;;2.17;0.98;;;15.20;99.90;;;;;;4993604;28;20357;-59
2023/10/29 10:17:49;;;;;;;3.17;0.90;;;15.30;99.90;;;;;;4982124;28;20050;-59
2023/10/29 10:20:20;;;;;;;1.10;0.68;;;15.40;99.90;;;;;;4991117;28;20400;-59
2023/10/29 10:22:55;;;;;;;2.10;0.95;;;15.40;99.90;;;;;;4989206;28;20035;-60
2023/10/29 10:25:24;;;;;;;1.33;0.73;;;15.40;99.90;;;;;;4973160;28;20106;-60
2023/10/29 10:27:52;;;;;;;4.68;1.00;;;15.40;99.90;;;;;;4987048;28;20042;-58
2023/10/29 10:30:28;;;;;;;1.73;0.80;;;15.60;99.90;;;;;;4984646;28;20046;-59
2023/10/29 10:33:11;;;;;;;2.75;0.90;;;15.60;99.90;;;;;;4978145;28;20381;-60
2023/10/29 10:35:44;;;;;;;1.13;0.90;;;15.80;99.90;;;;;;4992026;28;20049;-59
2023/10/29 10:38:12;;;;;;;2.05;1.02;;;15.90;99.90;;;;;;4983902;28;20049;-60
2023/10/29 10:40:39;;;;;;;2.97;0.80;;;16.00;99.90;;;;;;4983339;28;20039;-60
2023/10/29 10:43:09;;;;;;;2.33;1.00;;;16.10;99.90;;;;;;4986827;28;20380;-60
2023/10/29 10:45:40;;;;;;;2.60;1.00;;;16.20;99.90;;;;;;4980647;28;20574;-57
2023/10/29 10:48:08;;;;;;;2.90;1.00;;;16.30;99.90;;;;;;4985434;28;20046;-60
2023/10/29 10:50:35;;;;;;;2.30;0.60;;;16.40;99.90;;;;;;4981214;28;20038;-58
2023/10/29 10:53:03;;;;;;;1.60;0.80;;;16.50;99.90;;;;;;4978915;28;20039;-57
2023/10/29 10:55:30;;;;;;;1.98;0.90;;;16.60;99.90;;;;;;4981120;28;20038;-60
2023/10/29 10:58:18;;;;;;;1.60;1.08;;;16.70;99.90;;;;;;4987008;28;20055;-59
2023/10/29 11:00:46;;;;;;;1.17;0.95;;;16.60;99.90;;;;;;4984083;28;20038;-60
2023/10/29 11:03:13;;;;;;;1.52;0.90;;;16.60;99.90;;;;;;4976832;28;20073;-59
2023/10/29 11:05:57;;;;;;;2.80;1.00;;;16.70;99.90;;;;;;4974298;28;20043;-60
2023/10/29 11:08:24;;;;;;;3.70;0.70;;;16.80;99.90;;;;;;4983934;28;20073;-57
2023/10/29 11:10:53;;;;;;;2.25;1.05;;;17.00;99.90;;;;;;4992723;28;20044;-59
2023/10/29 11:13:20;;;;;;;1.52;0.95;;;17.10;99.90;;;;;;4982971;28;20038;-59
2023/10/29 11:15:49;;;;;;;1.58;0.90;;;17.20;99.90;;;;;;4982542;28;20426;-59
2023/10/29 11:18:31;;;;;;;2.10;0.85;;;17.40;99.90;;;;;;4984121;28;20094;-58
2023/10/29 11:21:00;;;;;;;3.55;0.80;;;17.40;99.90;;;;;;4979682;28;20049;-59
2023/10/29 11:23:28;;;;;;;1.88;1.05;;;17.50;99.90;;;;;;4982909;28;20038;-60
2023/10/29 11:26:21;;;;;;;1.30;1.02;;;17.50;99.90;;;;;;4986482;28;20034;-60
2023/10/29 11:28:50;;;;;;;2.67;1.38;;;17.50;99.90;;;;;;4987811;28;20093;-60
2023/10/29 11:31:18;;;;;;;1.13;0.80;;;17.40;99.90;;;;;;4985820;28;20047;-59
2023/10/29 11:33:48;;;;;;;1.77;0.70;;;17.30;99.90;;;;;;4992251;28;20562;-57
2023/10/29 11:36:41;;;;;;;0.88;0.60;;;17.40;99.90;;;;;;4983550;28;20042;-59
2023/10/29 11:39:28;;;;;;;1.65;0.70;;;17.50;99.90;;;;;;4985928;28;20038;-59
2023/10/29 11:41:56;;;;;;;1.08;0.80;;;17.50;99.90;;;;;;4984585;28;20408;-60
2023/10/29 11:44:24;;;;;;;2.17;0.93;;;17.60;99.90;;;;;;4998423;28;20402;-58
2023/10/29 11:47:03;;;;;;;1.52;0.63;;;17.70;99.90;;;;;;5000144;28;20043;-59
2023/10/29 11:49:44;;;;;;;3.40;0.57;;;17.90;99.80;;;;;;4992067;28;20039;-60
2023/10/29 11:52:10;;;;;;;2.53;0.50;;;18.10;99.70;;;;;;4995048;28;20125;-60
2023/10/29 11:54:38;;;;;;;1.75;0.85;;;18.20;99.20;;;;;;4994987;28;20488;-59
2023/10/29 11:57:06;;;;;;;2.30;0.82;;;18.30;99.50;;;;;;4995149;28;20034;-60
2023/10/29 11:59:33;;;;;;;3.22;0.90;;;18.30;99.90;;;;;;4993117;28;20049;-59
2023/10/29 12:02:01;;;;;;;2.67;1.05;;;18.50;99.90;;;;;;4973712;28;20121;-59
2023/10/29 12:04:31;;;;;;;1.35;0.80;;;18.50;99.90;;;;;;4974887;28;20055;-60
2023/10/29 12:06:59;;;;;;;8.23;1.10;;;18.70;99.90;;;;;;4995831;28;20049;-60
2023/10/29 12:09:27;;;;;;;1.35;0.90;;;18.70;99.40;;;;;;4994520;28;20384;-60
2023/10/29 12:11:54;;;;;;;1.60;0.90;;;18.80;99.30;;;;;;4995159;28;20038;-59
2023/10/29 12:14:45;;;;;;;0.95;0.90;;;18.80;98.80;;;;;;4989177;28;20043;-59
2023/10/29 12:17:14;;;;;;;3.25;0.90;;;18.70;98.50;;;;;;4989369;28;20077;-60
2023/10/29 12:19:43;;;;;;;2.35;0.50;;;18.80;98.50;;;;;;4994965;28;20038;-60
2023/10/29 12:22:18;;;;;;;2.45;0.70;;;18.80;97.60;;;;;;4984646;28;20057;-60
2023/10/29 12:24:46;;;;;;;1.13;0.50;;;18.90;97.60;;;;;;4984625;28;20034;-58
2023/10/29 12:27:14;;;;;;;1.02;0.82;;;18.90;97.70;;;;;;4991582;28;20046;-60
2023/10/29 12:29:41;;;;;;;1.38;0.60;;;18.90;97.60;;;;;;4987456;28;20054;-60
2023/10/29 12:32:16;;;;;;;1.80;0.57;;;19.00;97.20;;;;;;4982440;28;20042;-58
2023/10/29 12:34:50;;;;;;;1.00;0.40;;;19.00;96.30;;;;;;4980594;28;20035;-60
2023/10/29 12:37:22;;;;;;;2.40;0.68;;;19.10;96.00;;;;;;4981571;28;20392;-58
2023/10/29 12:39:51;;;;;;;0.80;0.50;;;19.30;96.00;;;;;;4987042;28;20046;-60
2023/10/29 12:42:19;;;;;;;1.00;0.52;;;19.40;95.20;;;;;;4988237;28;20046;-58
2023/10/29 12:44:55;;;;;;;2.15;0.47;;;19.40;95.80;;;;;;4988254;28;20046;-59
2023/10/29 12:47:23;;;;;;;1.13;0.63;;;19.40;95.20;;;;;;4985935;28;20427;-60
2023/10/29 12:50:01;;;;;;;1.88;0.68;;;19.50;95.50;;;;;;4989111;28;20042;-60
2023/10/29 12:52:30;;;;;;;1.10;0.60;;;19.50;95.60;;;;;;4984246;28;20105;-59
2023/10/29 12:54:57;;;;;;;3.03;0.80;;;19.60;94.90;;;;;;4990148;28;20053;-60
2023/10/29 12:57:24;;;;;;;2.47;0.60;;;19.60;94.80;;;;;;4973642;28;20042;-59
2023/10/29 12:59:51;;;;;;;1.40;0.63;;;19.70;94.90;;;;;;4986413;28;20101;-59